createdAt,value
2018-10-06T00:00:11.901Z,76.80
2018-10-06T00:02:42.364Z,77.00
2018-10-06T00:05:11.577Z,76.80
2018-10-06T00:07:40.805Z,77.00
2018-10-06T00:10:10.136Z,77.10
2018-10-06T00:12:39.260Z,76.60
2018-10-06T00:15:08.724Z,76.50
2018-10-06T00:17:38.033Z,76.30
2018-10-06T00:20:08.476Z,76.30
2018-10-06T00:22:37.516Z,76.00
2018-10-06T00:25:06.933Z,75.70
2018-10-06T00:27:35.972Z,76.50
2018-10-06T00:30:05.200Z,75.40
2018-10-06T00:35:03.242Z,75.40
2018-10-06T00:37:32.405Z,75.10
2018-10-06T00:40:01.714Z,75.00
2018-10-06T00:42:30.753Z,74.80
2018-10-06T00:44:59.782Z,74.80
2018-10-06T00:47:28.854Z,74.80
2018-10-06T00:49:58.797Z,74.70
2018-10-06T00:52:27.864Z,74.60
2018-10-06T00:54:56.935Z,74.50
2018-10-06T00:57:26.022Z,74.60
2018-10-06T00:59:55.076Z,74.50
2018-10-06T01:02:24.107Z,75.40
2018-10-06T01:04:53.143Z,75.10
2018-10-06T01:07:22.205Z,75.20
2018-10-06T01:09:51.277Z,75.20
2018-10-06T01:12:20.829Z,75.20
2018-10-06T01:14:49.850Z,75.10
2018-10-06T01:17:18.849Z,75.00
2018-10-06T01:19:48.380Z,74.80
2018-10-06T01:22:17.473Z,74.80
2018-10-06T01:24:46.517Z,74.80
2018-10-06T01:27:15.707Z,75.00
2018-10-06T01:29:44.880Z,75.00
2018-10-06T01:32:13.972Z,75.10
2018-10-06T01:34:44.228Z,75.10
2018-10-06T01:37:13.449Z,75.10
2018-10-06T01:39:42.604Z,75.10
2018-10-06T01:42:11.723Z,75.20
2018-10-06T01:44:40.846Z,75.20
2018-10-06T01:47:09.909Z,75.30
2018-10-06T01:49:38.897Z,75.30
2018-10-06T01:52:07.884Z,75.30
2018-10-06T01:54:36.912Z,75.40
2018-10-06T01:57:06.016Z,75.30
2018-10-06T01:59:35.069Z,75.30
2018-10-06T02:02:04.059Z,75.30
2018-10-06T02:04:34.305Z,75.30
2018-10-06T02:07:04.368Z,75.30
2018-10-06T02:09:33.512Z,75.40
2018-10-06T02:12:02.535Z,75.30
2018-10-06T02:14:31.653Z,75.40
2018-10-06T02:17:00.705Z,75.60
2018-10-06T02:19:29.696Z,75.70
2018-10-06T02:21:58.730Z,75.60
2018-10-06T02:24:27.688Z,75.70
2018-10-06T02:26:56.824Z,75.80
2018-10-06T02:29:25.872Z,76.10
2018-10-06T02:31:55.165Z,75.90
2018-10-06T02:34:24.177Z,75.70
2018-10-06T02:36:53.529Z,75.50
2018-10-06T02:39:23.085Z,75.40
2018-10-06T02:41:53.266Z,75.30
2018-10-06T02:44:23.267Z,75.50
2018-10-06T02:46:53.211Z,75.60
2018-10-06T02:49:23.401Z,75.50
2018-10-06T02:51:53.325Z,75.60
2018-10-06T02:54:23.518Z,75.80
2018-10-06T02:56:52.516Z,76.00
2018-10-06T02:59:21.597Z,76.10
2018-10-06T03:01:50.676Z,76.40
2018-10-06T03:04:19.700Z,76.50
2018-10-06T03:06:48.761Z,76.60
2018-10-06T03:09:18.142Z,76.70
2018-10-06T03:11:47.265Z,76.80
2018-10-06T03:14:16.388Z,76.70
2018-10-06T03:16:45.416Z,76.70
2018-10-06T03:19:14.546Z,76.70
2018-10-06T03:21:43.647Z,76.70
2018-10-06T03:24:12.698Z,76.70
2018-10-06T03:26:41.807Z,76.70
2018-10-06T03:29:10.836Z,76.80
2018-10-06T03:31:39.977Z,76.90
2018-10-06T03:34:09.341Z,76.90
2018-10-06T03:36:38.451Z,76.90
2018-10-06T03:39:08.025Z,76.80
2018-10-06T03:41:37.020Z,76.80
2018-10-06T03:44:06.040Z,76.70
2018-10-06T03:46:35.038Z,76.70
2018-10-06T03:49:04.157Z,76.60
2018-10-06T03:51:33.185Z,76.60
2018-10-06T03:54:02.286Z,76.60
2018-10-06T03:56:31.320Z,76.70
2018-10-06T03:59:00.511Z,76.70
2018-10-06T04:01:29.500Z,76.70
2018-10-06T04:03:58.503Z,76.70
2018-10-06T04:06:27.497Z,76.80
2018-10-06T04:08:56.668Z,76.70
2018-10-06T04:11:25.656Z,76.70
2018-10-06T04:13:54.889Z,76.70
2018-10-06T04:16:23.940Z,76.70
2018-10-06T04:18:52.998Z,76.80
2018-10-06T04:21:22.061Z,76.80
2018-10-06T04:23:51.361Z,76.80
2018-10-06T04:26:20.476Z,76.80
2018-10-06T04:28:49.829Z,76.80
2018-10-06T04:31:18.841Z,76.80
2018-10-06T04:33:47.977Z,76.80
2018-10-06T04:36:17.080Z,76.80
2018-10-06T04:38:47.317Z,76.80
2018-10-06T04:41:17.658Z,76.70
2018-10-06T04:43:46.810Z,76.80
2018-10-06T04:46:16.048Z,76.80
2018-10-06T04:48:45.327Z,76.80
2018-10-06T04:51:16.073Z,76.80
2018-10-06T04:53:45.378Z,76.80
2018-10-06T04:56:14.644Z,76.80
2018-10-06T04:58:43.945Z,76.80
2018-10-06T05:01:13.306Z,76.80
2018-10-06T05:03:42.725Z,77.00
2018-10-06T05:06:12.034Z,77.10
2018-10-06T05:08:41.365Z,77.20
2018-10-06T05:11:10.763Z,77.30
2018-10-06T05:13:39.920Z,77.30
2018-10-06T05:16:11.315Z,77.50
2018-10-06T05:18:40.516Z,77.60
2018-10-06T05:21:09.800Z,77.00
2018-10-06T05:23:38.985Z,77.80
2018-10-06T05:26:08.079Z,77.90
2018-10-06T05:28:37.309Z,77.80
2018-10-06T05:31:06.593Z,77.80
2018-10-06T05:33:35.813Z,77.80
2018-10-06T05:36:04.997Z,77.80
2018-10-06T05:38:34.172Z,77.80
2018-10-06T05:41:03.390Z,78.00
2018-10-06T05:43:32.542Z,77.80
2018-10-06T05:46:01.808Z,77.90
2018-10-06T05:48:30.994Z,78.00
2018-10-06T05:51:00.613Z,78.20
2018-10-06T05:53:30.145Z,78.40
2018-10-06T05:55:59.498Z,78.50
2018-10-06T05:58:28.766Z,78.70
2018-10-06T06:00:58.194Z,78.80
2018-10-06T06:03:27.263Z,78.90
2018-10-06T06:05:56.498Z,79.00
2018-10-06T06:08:26.168Z,79.10
2018-10-06T06:10:55.525Z,79.10
2018-10-06T06:13:24.848Z,79.30
2018-10-06T06:15:54.481Z,79.50
2018-10-06T06:18:23.629Z,79.70
2018-10-06T06:20:52.927Z,79.70
2018-10-06T06:23:22.125Z,79.20
2018-10-06T06:25:51.262Z,78.70
2018-10-06T06:28:20.561Z,78.10
2018-10-06T06:30:49.758Z,77.70
2018-10-06T06:33:19.096Z,77.30
2018-10-06T06:35:48.569Z,76.50
2018-10-06T06:38:17.938Z,75.30
2018-10-06T06:40:47.228Z,74.20
2018-10-06T06:43:16.509Z,73.70
2018-10-06T06:45:45.948Z,73.10
2018-10-06T06:48:15.229Z,72.30
2018-10-06T06:50:45.008Z,71.80
2018-10-06T06:53:14.382Z,70.70
2018-10-06T06:55:43.638Z,70.10
2018-10-06T06:58:13.257Z,69.40
2018-10-06T07:00:42.456Z,68.60
2018-10-06T07:03:11.717Z,68.10
2018-10-06T07:05:41.226Z,67.90
2018-10-06T07:08:11.138Z,67.50
2018-10-06T07:10:40.844Z,67.00
2018-10-06T07:13:09.905Z,66.40
2018-10-06T07:15:39.145Z,66.00
2018-10-06T07:18:10.218Z,65.40
2018-10-06T07:20:39.999Z,64.40
2018-10-06T07:23:09.272Z,63.40
2018-10-06T07:25:38.641Z,62.30
2018-10-06T07:28:07.668Z,61.60
2018-10-06T07:30:36.962Z,60.10
2018-10-06T07:33:06.084Z,59.10
2018-10-06T07:35:35.459Z,58.50
2018-10-06T07:38:06.267Z,58.00
2018-10-06T07:40:35.500Z,57.00
2018-10-06T07:43:04.679Z,55.80
2018-10-06T07:45:33.807Z,54.70
2018-10-06T07:48:03.105Z,54.20
2018-10-06T07:50:32.229Z,53.80
2018-10-06T07:53:01.652Z,52.90
2018-10-06T07:55:31.029Z,52.30
2018-10-06T07:58:00.328Z,52.10
2018-10-06T08:00:29.760Z,51.70
2018-10-06T08:02:58.944Z,51.10
2018-10-06T08:05:28.249Z,51.00
2018-10-06T08:07:57.394Z,50.60
2018-10-06T08:10:26.498Z,50.00
2018-10-06T08:12:55.915Z,49.10
2018-10-06T08:15:26.389Z,48.00
2018-10-06T08:17:55.640Z,47.00
2018-10-06T08:20:25.050Z,46.20
2018-10-06T08:22:54.453Z,46.50
2018-10-06T08:25:23.996Z,45.80
2018-10-06T08:27:53.341Z,45.70
2018-10-06T08:30:22.642Z,45.50
2018-10-06T08:32:52.220Z,45.20
2018-10-06T08:35:21.482Z,45.30
2018-10-06T08:37:50.618Z,45.00
2018-10-06T08:40:20.003Z,45.40
2018-10-06T08:42:49.647Z,44.30
2018-10-06T08:45:19.178Z,44.20
2018-10-06T08:47:48.701Z,44.40
2018-10-06T08:50:18.309Z,43.90
2018-10-06T08:52:47.908Z,43.50
2018-10-06T08:55:17.500Z,42.70
2018-10-06T08:57:46.912Z,43.20
2018-10-06T09:00:17.181Z,43.10
2018-10-06T09:02:46.442Z,43.40
2018-10-06T09:05:15.766Z,43.50
2018-10-06T09:07:45.282Z,43.60
2018-10-06T09:10:14.724Z,42.90
2018-10-06T09:12:44.541Z,42.40
2018-10-06T09:15:14.041Z,42.70
2018-10-06T09:17:43.573Z,41.90
2018-10-06T09:20:13.210Z,42.00
2018-10-06T09:22:42.458Z,42.00
2018-10-06T09:25:11.874Z,41.90
2018-10-06T09:27:41.425Z,42.50
2018-10-06T09:30:10.735Z,42.50
2018-10-06T09:32:39.948Z,42.20
2018-10-06T09:35:09.132Z,42.20
2018-10-06T09:37:38.410Z,42.70
2018-10-06T09:40:07.690Z,42.60
2018-10-06T09:42:37.231Z,41.80
2018-10-06T09:45:06.468Z,41.70
2018-10-06T09:47:35.739Z,41.90
2018-10-06T09:50:05.226Z,41.80
2018-10-06T09:52:34.501Z,41.20
2018-10-06T09:55:03.762Z,41.80
2018-10-06T09:57:32.976Z,41.50
2018-10-06T10:00:02.442Z,41.70
2018-10-06T10:02:37.056Z,41.10
2018-10-06T10:05:11.582Z,40.60
2018-10-06T10:07:41.004Z,40.30
2018-10-06T10:10:10.578Z,40.60
2018-10-06T10:12:40.147Z,40.10
2018-10-06T10:15:09.331Z,39.90
2018-10-06T10:17:38.870Z,39.10
2018-10-06T10:20:07.691Z,39.10
2018-10-06T10:22:37.780Z,39.40
2018-10-06T10:25:06.938Z,38.80
2018-10-06T10:27:36.087Z,39.40
2018-10-06T10:30:06.923Z,39.10
2018-10-06T10:32:36.409Z,39.30
2018-10-06T10:35:06.367Z,39.70
2018-10-06T10:37:35.983Z,39.70
2018-10-06T10:40:05.529Z,39.90
2018-10-06T10:42:34.786Z,39.70
2018-10-06T10:45:04.290Z,39.90
2018-10-06T10:47:34.031Z,39.90
2018-10-06T10:50:03.193Z,40.20
2018-10-06T10:52:32.748Z,41.20
2018-10-06T10:55:02.176Z,40.10
2018-10-06T10:57:31.730Z,39.80
2018-10-06T11:00:01.548Z,39.60
2018-10-06T11:02:30.573Z,39.90
2018-10-06T11:05:00.277Z,39.90
2018-10-06T11:07:30.863Z,40.00
2018-10-06T11:10:00.149Z,40.70
2018-10-06T11:12:30.621Z,40.40
2018-10-06T11:14:59.956Z,40.70
2018-10-06T11:19:26.797Z,41.00
2018-10-06T11:21:56.722Z,40.80
2018-10-06T11:24:26.194Z,40.60
2018-10-06T11:26:55.736Z,41.20
2018-10-06T11:29:25.410Z,41.30
2018-10-06T11:31:54.916Z,41.20
2018-10-06T11:34:24.581Z,41.80
2018-10-06T11:36:54.265Z,41.40
2018-10-06T11:39:23.820Z,41.40
2018-10-06T11:41:53.384Z,42.30
2018-10-06T11:44:22.896Z,41.90
2018-10-06T11:46:52.332Z,42.10
2018-10-06T11:49:22.263Z,41.70
2018-10-06T11:51:51.740Z,42.30
2018-10-06T11:54:21.240Z,40.90
2018-10-06T11:56:51.988Z,40.90
2018-10-06T11:59:22.771Z,41.50
2018-10-06T12:01:51.939Z,41.40
2018-10-06T12:04:21.544Z,41.90
2018-10-06T12:06:57.504Z,42.10
2018-10-06T12:09:27.763Z,41.80
2018-10-06T12:11:57.361Z,42.70
2018-10-06T12:14:26.927Z,42.10
2018-10-06T12:16:56.149Z,42.00
2018-10-06T12:19:26.882Z,42.30
2018-10-06T12:22:02.976Z,42.50
2018-10-06T12:24:32.252Z,42.90
2018-10-06T12:27:01.845Z,43.10
2018-10-06T12:29:31.243Z,42.90
2018-10-06T12:32:00.764Z,43.30
2018-10-06T12:34:30.296Z,43.20
2018-10-06T12:36:59.906Z,43.60
2018-10-06T12:39:29.198Z,43.40
2018-10-06T12:41:59.126Z,43.60
2018-10-06T12:44:28.391Z,43.80
2018-10-06T12:46:57.607Z,43.60
2018-10-06T12:49:27.240Z,44.00
2018-10-06T12:51:56.644Z,43.80
2018-10-06T12:54:25.906Z,43.80
2018-10-06T12:56:55.287Z,43.70
2018-10-06T12:59:24.839Z,43.30
2018-10-06T13:01:54.253Z,43.70
2018-10-06T13:04:25.103Z,43.90
2018-10-06T13:06:54.561Z,43.90
2018-10-06T13:09:24.337Z,43.80
2018-10-06T13:11:54.101Z,43.90
2018-10-06T13:14:24.058Z,44.20
2018-10-06T13:16:53.288Z,43.50
2018-10-06T13:19:23.340Z,43.80
2018-10-06T13:21:55.738Z,43.50
2018-10-06T13:24:26.195Z,44.10
2018-10-06T13:26:56.264Z,43.70
2018-10-06T13:29:25.946Z,43.50
2018-10-06T13:31:55.477Z,43.30
2018-10-06T13:34:25.623Z,43.60
2018-10-06T13:36:54.876Z,43.60
2018-10-06T13:39:24.596Z,43.60
2018-10-06T13:41:53.877Z,43.40
2018-10-06T13:44:23.033Z,43.30
2018-10-06T13:46:52.456Z,43.50
2018-10-06T13:49:21.910Z,43.50
2018-10-06T13:51:51.769Z,43.80
2018-10-06T13:54:21.555Z,44.10
2018-10-06T13:56:50.766Z,44.10
2018-10-06T13:59:20.297Z,43.80
2018-10-06T14:01:49.987Z,43.80
2018-10-06T14:04:20.067Z,44.10
2018-10-06T14:06:49.419Z,44.20
2018-10-06T14:09:19.067Z,44.20
2018-10-06T14:11:48.249Z,44.30
2018-10-06T14:14:17.805Z,44.60
2018-10-06T14:16:47.392Z,44.40
2018-10-06T14:19:16.759Z,44.40
2018-10-06T14:21:46.489Z,45.00
2018-10-06T14:24:15.906Z,44.60
2018-10-06T14:26:45.485Z,44.60
2018-10-06T14:29:15.369Z,44.60
2018-10-06T14:31:44.437Z,45.10
2018-10-06T14:34:13.966Z,44.90
2018-10-06T14:36:43.810Z,45.10
2018-10-06T14:39:13.307Z,45.10
2018-10-06T14:41:43.630Z,45.10
2018-10-06T14:44:13.366Z,45.10
2018-10-06T14:46:42.829Z,45.20
2018-10-06T14:49:12.348Z,45.20
2018-10-06T14:51:42.244Z,45.10
2018-10-06T14:54:11.698Z,45.20
2018-10-06T14:56:41.242Z,45.00
2018-10-06T14:59:10.839Z,44.40
2018-10-06T15:01:40.448Z,44.20
2018-10-06T15:04:11.185Z,44.00
2018-10-06T15:06:41.279Z,44.00
2018-10-06T15:09:11.846Z,43.50
2018-10-06T15:11:41.606Z,43.50
2018-10-06T15:19:08.195Z,43.80
2018-10-06T15:21:38.398Z,43.60
2018-10-06T15:24:08.237Z,43.80
2018-10-06T15:26:37.793Z,44.10
2018-10-06T15:29:07.315Z,44.00
2018-10-06T15:31:37.971Z,44.20
2018-10-06T15:34:07.224Z,44.10
2018-10-06T15:36:37.172Z,44.10
2018-10-06T15:39:08.585Z,44.20
2018-10-06T15:41:38.955Z,44.30
2018-10-06T15:44:08.575Z,44.30
2018-10-06T15:46:37.804Z,44.40
2018-10-06T15:49:07.438Z,44.50
2018-10-06T15:51:36.777Z,44.60
2018-10-06T15:54:06.196Z,44.50
2018-10-06T15:56:35.714Z,44.50
2018-10-06T15:59:04.851Z,44.50
2018-10-06T16:01:33.993Z,44.70
2018-10-06T16:04:03.244Z,45.00
2018-10-06T16:06:33.348Z,45.20
2018-10-06T16:09:02.467Z,45.20
2018-10-06T16:11:31.985Z,45.30
2018-10-06T16:14:01.239Z,45.20
2018-10-06T16:16:30.923Z,45.20
2018-10-06T16:19:00.312Z,45.00
2018-10-06T16:21:30.326Z,45.40
2018-10-06T16:23:59.665Z,45.00
2018-10-06T16:26:29.825Z,44.90
2018-10-06T16:28:59.715Z,44.90
2018-10-06T16:31:28.890Z,45.40
2018-10-06T16:33:58.921Z,44.80
2018-10-06T16:36:28.139Z,45.00
2018-10-06T16:38:57.314Z,44.70
2018-10-06T16:41:29.023Z,45.30
2018-10-06T16:43:58.208Z,45.30
2018-10-06T16:46:27.320Z,44.70
2018-10-06T16:48:56.794Z,44.80
2018-10-06T16:51:26.027Z,45.10
2018-10-06T16:53:55.224Z,45.00
2018-10-06T16:56:24.547Z,45.30
2018-10-06T16:58:54.765Z,44.80
2018-10-06T17:01:24.477Z,45.20
2018-10-06T17:03:53.624Z,45.20
2018-10-06T17:06:23.006Z,45.10
2018-10-06T17:08:52.110Z,45.20
2018-10-06T17:11:21.547Z,45.20
2018-10-06T17:13:50.887Z,45.20
2018-10-06T17:16:20.486Z,45.40
2018-10-06T17:18:49.992Z,45.50
2018-10-06T17:21:19.984Z,45.90
2018-10-06T17:23:49.149Z,46.00
2018-10-06T17:26:18.716Z,46.50
2018-10-06T17:28:48.611Z,46.70
2018-10-06T17:31:19.084Z,47.00
2018-10-06T17:33:48.954Z,47.20
2018-10-06T17:36:19.091Z,47.50
2018-10-06T17:38:48.672Z,47.90
2018-10-06T17:41:17.951Z,48.10
2018-10-06T17:43:47.238Z,48.50
2018-10-06T17:46:16.594Z,48.80
2018-10-06T17:48:46.203Z,49.10
2018-10-06T17:51:15.768Z,49.40
2018-10-06T17:53:44.956Z,49.70
2018-10-06T17:56:15.185Z,49.90
2018-10-06T17:58:44.349Z,50.10
2018-10-06T18:01:14.630Z,50.30
2018-10-06T18:03:45.197Z,50.60
2018-10-06T18:06:15.646Z,50.90
2018-10-06T18:08:46.517Z,51.30
2018-10-06T18:11:15.912Z,51.70
2018-10-06T18:13:46.207Z,51.80
2018-10-06T18:16:16.205Z,52.10
2018-10-06T18:18:45.608Z,52.60
2018-10-06T18:21:15.051Z,53.10
2018-10-06T18:23:45.190Z,53.50
2018-10-06T18:26:15.738Z,54.20
2018-10-06T18:28:45.734Z,54.50
2018-10-06T18:31:15.774Z,54.60
2018-10-06T18:33:45.422Z,54.60
2018-10-06T18:36:15.504Z,54.90
2018-10-06T18:38:45.714Z,54.90
2018-10-06T18:41:15.940Z,55.00
2018-10-06T18:43:46.510Z,55.60
2018-10-06T18:46:16.606Z,56.00
2018-10-06T18:48:46.323Z,55.60
2018-10-06T18:51:15.713Z,56.00
2018-10-06T18:53:45.537Z,56.40
2018-10-06T18:56:15.358Z,56.40
2018-10-06T18:58:45.227Z,56.40
2018-10-06T19:01:15.035Z,57.00
2018-10-06T19:03:46.072Z,57.10
2018-10-06T19:06:15.839Z,57.40
2018-10-06T19:08:45.748Z,57.80
2018-10-06T19:11:15.356Z,57.70
2018-10-06T19:13:44.700Z,57.70
2018-10-06T19:16:14.240Z,57.80
2018-10-06T19:18:43.713Z,57.90
2018-10-06T19:21:13.621Z,57.90
2018-10-06T19:23:43.516Z,58.00
2018-10-06T19:26:14.324Z,58.00
2018-10-06T19:28:43.799Z,58.50
2018-10-06T19:31:13.461Z,58.40
2018-10-06T19:33:43.448Z,58.70
2018-10-06T19:36:13.412Z,58.80
2018-10-06T19:38:42.867Z,58.90
2018-10-06T19:41:14.583Z,58.80
2018-10-06T19:43:46.706Z,59.00
2018-10-06T19:46:17.790Z,59.00
2018-10-06T19:48:47.276Z,59.20
2018-10-06T19:51:16.657Z,59.20
2018-10-06T19:53:47.035Z,59.40
2018-10-06T19:56:16.363Z,59.30
2018-10-06T19:58:45.712Z,59.50
2018-10-06T20:01:15.033Z,59.60
2018-10-06T20:03:44.411Z,59.70
2018-10-06T20:06:13.817Z,59.90
2018-10-06T20:08:44.175Z,60.70
2018-10-06T20:11:14.635Z,60.10
2018-10-06T20:13:45.024Z,60.20
2018-10-06T20:16:14.548Z,60.50
2018-10-06T20:18:44.102Z,60.60
2018-10-06T20:21:15.149Z,60.80
2018-10-06T20:23:44.975Z,61.00
2018-10-06T20:26:14.858Z,61.50
2018-10-06T20:31:21.252Z,62.00
2018-10-06T20:33:50.647Z,62.30
2018-10-06T20:36:20.103Z,62.50
2018-10-06T20:38:49.635Z,62.80
2018-10-06T20:41:19.473Z,63.20
2018-10-06T20:43:49.250Z,63.10
2018-10-06T20:46:19.095Z,63.20
2018-10-06T20:48:48.923Z,63.30
2018-10-06T20:51:18.433Z,63.40
2018-10-06T20:53:48.533Z,63.60
2018-10-06T20:56:18.566Z,63.70
2018-10-06T20:58:48.897Z,63.60
2018-10-06T21:01:19.042Z,63.90
2018-10-06T21:03:48.395Z,64.00
2018-10-06T21:06:17.710Z,64.10
2018-10-06T21:08:47.714Z,64.20
2018-10-06T21:11:19.236Z,64.40
2018-10-06T21:13:49.345Z,64.40
2018-10-06T21:16:18.540Z,64.50
2018-10-06T21:18:47.784Z,64.60
2018-10-06T21:21:17.259Z,64.70
2018-10-06T21:23:48.828Z,64.60
2018-10-06T21:26:19.522Z,64.70
2018-10-06T21:28:49.295Z,64.60
2018-10-06T21:31:18.706Z,65.00
2018-10-06T21:33:48.105Z,65.30
2018-10-06T21:36:17.573Z,65.40
2018-10-06T21:38:47.041Z,65.30
2018-10-06T21:41:16.972Z,65.50
2018-10-06T21:43:46.331Z,65.90
2018-10-06T21:46:15.846Z,66.10
2018-10-06T21:48:45.424Z,66.90
2018-10-06T21:51:15.096Z,67.10
2018-10-06T21:53:44.403Z,67.00
2018-10-06T21:56:13.953Z,67.50
2018-10-06T21:58:44.384Z,67.40
2018-10-06T22:01:14.602Z,67.70
2018-10-06T22:03:44.042Z,68.00
2018-10-06T22:06:13.769Z,68.30
2018-10-06T22:08:43.042Z,68.30
2018-10-06T22:11:12.311Z,68.60
2018-10-06T22:13:41.920Z,68.70
2018-10-06T22:16:11.316Z,68.70
2018-10-06T22:18:40.599Z,68.60
2018-10-06T22:21:10.739Z,68.40
2018-10-06T22:26:15.505Z,68.60
2018-10-06T22:28:45.223Z,68.80
2018-10-06T22:31:15.281Z,69.00
2018-10-06T22:33:45.142Z,69.30
2018-10-06T22:36:14.787Z,69.20
2018-10-06T22:38:51.028Z,69.60
2018-10-06T22:41:20.180Z,69.80
2018-10-06T22:43:49.383Z,69.90
2018-10-06T22:46:19.036Z,69.90
2018-10-06T22:48:48.225Z,70.00
2018-10-06T22:51:18.200Z,70.70
2018-10-06T22:53:47.763Z,69.80
2018-10-06T22:56:16.882Z,70.00
2018-10-06T22:58:46.182Z,70.00
2018-10-06T23:01:15.517Z,70.00
2018-10-06T23:03:44.698Z,70.30
2018-10-06T23:06:15.187Z,70.40
2018-10-06T23:08:44.888Z,70.80
2018-10-06T23:11:14.161Z,70.40
2018-10-06T23:13:43.706Z,70.40
2018-10-06T23:16:13.112Z,70.60
2018-10-06T23:18:42.394Z,70.90
2018-10-06T23:21:11.588Z,71.10
2018-10-06T23:23:40.784Z,71.10
2018-10-06T23:26:09.909Z,71.30
2018-10-06T23:28:39.219Z,71.50
2018-10-06T23:31:08.341Z,71.80
2018-10-06T23:33:37.588Z,71.90
2018-10-06T23:36:07.086Z,72.00
2018-10-06T23:38:36.321Z,72.20
2018-10-06T23:41:05.694Z,72.30
2018-10-06T23:43:34.798Z,72.40
2018-10-06T23:46:04.120Z,73.40
2018-10-06T23:48:33.339Z,73.10
2018-10-06T23:51:02.712Z,73.40
2018-10-06T23:53:32.081Z,73.50
2018-10-06T23:56:02.069Z,73.90
2018-10-06T23:58:31.255Z,74.20
